Time;durP1;ratioP1;P1;durP2;ratioP2;P2;SDS_P1;SDS_P2;PMS_P1;PMS_P2;Temp;Humidity;BMP_temperature;BMP_pressure;BME280_temperature;BME280_humidity;BME280_pressure;Samples;Min_cycle;Max_cycle;Signal;HPM_P1;HPM_P2
2021/12/27 00:00:55;;;;;;;3.93;3.40;;;20.00;50.20;;;;;;5030293;28;20414;-68
2021/12/27 00:03:21;;;;;;;3.50;3.07;;;19.70;57.70;;;;;;5030879;28;20204;-68
2021/12/27 00:05:46;;;;;;;3.30;3.00;;;20.00;50.20;;;;;;5031314;28;20514;-68
2021/12/27 00:08:12;;;;;;;4.13;3.87;;;20.00;50.80;;;;;;5031154;28;20415;-68
2021/12/27 00:10:38;;;;;;;4.20;3.80;;;19.90;50.10;;;;;;5031235;28;20242;-68
2021/12/27 00:13:05;;;;;;;3.33;3.03;;;20.00;50.20;;;;;;5030580;28;20216;-68
2021/12/27 00:15:31;;;;;;;3.00;2.70;;;20.00;50.20;;;;;;5031100;28;20192;-68
2021/12/27 00:17:56;;;;;;;2.80;2.60;;;20.00;50.20;;;;;;5031184;28;20457;-70
2021/12/27 00:20:22;;;;;;;3.57;3.27;;;20.40;50.40;;;;;;5031220;28;20164;-69
2021/12/27 00:22:49;;;;;;;3.40;3.13;;;19.90;50.10;;;;;;5030720;28;20518;-69
2021/12/27 00:25:15;;;;;;;4.40;3.33;;;20.00;50.20;;;;;;5030817;28;20196;-69
2021/12/27 00:27:41;;;;;;;5.80;3.40;;;20.30;50.30;;;;;;5030764;28;20411;-69
2021/12/27 00:30:09;;;;;;;3.00;2.80;;;19.90;50.10;;;;;;5030831;28;20720;-69
2021/12/27 00:32:37;;;;;;;2.97;2.70;;;20.00;50.20;;;;;;5030516;28;20540;-69
2021/12/27 00:35:04;;;;;;;3.30;3.00;;;19.90;50.10;;;;;;5030633;28;20431;-69
2021/12/27 00:37:30;;;;;;;3.87;3.53;;;19.90;50.10;;;;;;5030608;28;20412;-69
2021/12/27 00:39:55;;;;;;;2.67;2.57;;;19.90;50.10;;;;;;5030514;28;20411;-69
2021/12/27 00:42:21;;;;;;;3.70;3.23;;;19.90;50.10;;;;;;5030388;28;20177;-69
2021/12/27 00:44:46;;;;;;;3.57;3.27;;;19.50;50.00;;;;;;5030653;28;20214;-69
2021/12/27 00:47:12;;;;;;;3.03;2.70;;;19.90;50.20;;;;;;5030544;28;20189;-69
2021/12/27 00:49:38;;;;;;;3.20;3.00;;;20.30;50.40;;;;;;5030576;28;20185;-69
2021/12/27 00:52:03;;;;;;;3.30;3.00;;;19.90;50.20;;;;;;5030198;28;20242;-69
2021/12/27 00:54:29;;;;;;;3.57;3.27;;;19.90;50.30;;;;;;5030182;28;20220;-69
2021/12/27 00:56:55;;;;;;;3.30;3.00;;;19.90;50.20;;;;;;5030205;28;20865;-69
2021/12/27 00:59:20;;;;;;;3.50;3.20;;;19.90;50.20;;;;;;5030247;28;20290;-69
2021/12/27 01:01:46;;;;;;;2.90;2.70;;;19.90;50.20;;;;;;5030164;28;20180;-69
2021/12/27 01:04:11;;;;;;;3.40;3.20;;;19.90;50.20;;;;;;5029993;28;20228;-69
2021/12/27 01:06:37;;;;;;;5.10;3.77;;;19.90;50.20;;;;;;5030165;28;20222;-69
2021/12/27 01:09:04;;;;;;;2.90;2.70;;;21.40;51.00;;;;;;5029997;28;20226;-69
2021/12/27 01:12:34;;;;;;;2.57;2.47;;;20.00;50.20;;;;;;5030119;28;20165;-69
2021/12/27 01:14:40;;;;;;;2.63;2.43;;;19.90;50.20;;;;;;5020793;28;20526;-69
2021/12/27 01:17:06;;;;;;;3.20;2.90;;;19.80;50.10;;;;;;5030204;28;20450;-69
2021/12/27 01:19:31;;;;;;;3.20;2.90;;;19.90;50.20;;;;;;5030175;28;20407;-69
2021/12/27 01:21:57;;;;;;;2.77;2.63;;;;;;;;;;5030024;28;20200;-69
2021/12/27 01:24:23;;;;;;;2.90;2.70;;;19.80;49.60;;;;;;5029919;28;20632;-69
2021/12/27 01:26:49;;;;;;;3.07;2.87;;;19.80;50.20;;;;;;5029766;28;20516;-69
2021/12/27 01:29:14;;;;;;;2.87;2.63;;;20.20;50.40;;;;;;5029825;28;20183;-69
2021/12/27 01:31:40;;;;;;;3.67;2.63;;;19.80;50.20;;;;;;5029634;28;20172;-69
2021/12/27 01:34:06;;;;;;;3.27;2.50;;;19.80;50.20;;;;;;5029313;28;20580;-70
2021/12/27 01:36:32;;;;;;;3.47;3.17;;;19.80;50.20;;;;;;5029752;28;20539;-69
2021/12/27 01:38:59;;;;;;;2.70;2.50;;;19.80;50.20;;;;;;5029553;28;20169;-69
2021/12/27 01:41:25;;;;;;;2.83;2.63;;;19.90;50.30;;;;;;5029610;28;20431;-69
2021/12/27 01:43:52;;;;;;;3.53;2.80;;;19.80;50.30;;;;;;5029129;28;20529;-69
2021/12/27 01:46:21;;;;;;;6.30;2.90;;;19.90;50.30;;;;;;5029447;28;20416;-69
2021/12/27 01:48:54;;;;;;;3.30;3.00;;;19.80;50.20;;;;;;5029429;28;20527;-69
2021/12/27 01:51:23;;;;;;;4.63;3.10;;;19.80;50.20;;;;;;5029460;28;20453;-69
2021/12/27 01:53:49;;;;;;;2.93;2.67;;;19.80;50.20;;;;;;5029013;28;20467;-69
2021/12/27 01:56:17;;;;;;;2.53;2.43;;;19.80;50.30;;;;;;5029183;28;20408;-69
2021/12/27 01:58:44;;;;;;;3.63;2.50;;;19.70;50.20;;;;;;5029135;28;20420;-69
2021/12/27 02:01:11;;;;;;;2.93;2.73;;;19.70;50.20;;;;;;5029096;28;20469;-69
2021/12/27 02:03:40;;;;;;;3.33;3.13;;;19.80;50.20;;;;;;5029022;28;20435;-69
2021/12/27 02:06:07;;;;;;;2.43;2.23;;;19.90;50.30;;;;;;5029219;28;20447;-69
2021/12/27 02:08:35;;;;;;;3.37;2.53;;;19.70;50.20;;;;;;5029267;28;20420;-69
2021/12/27 02:11:01;;;;;;;2.80;2.60;;;19.80;50.30;;;;;;5029137;28;20419;-69
2021/12/27 02:13:27;;;;;;;2.63;2.43;;;19.60;62.30;;;;;;5028866;28;20459;-69
2021/12/27 02:15:53;;;;;;;2.97;2.77;;;19.30;50.00;;;;;;5029005;28;20883;-69
2021/12/27 02:18:18;;;;;;;3.10;2.80;;;19.70;50.20;;;;;;5028859;28;20191;-69
2021/12/27 02:20:44;;;;;;;2.50;2.40;;;19.70;50.30;;;;;;5029077;28;20260;-69
2021/12/27 02:23:16;;;;;;;3.20;3.00;;;19.80;50.30;;;;;;5028535;28;20180;-69
2021/12/27 02:25:47;;;;;;;4.67;2.60;;;19.80;50.30;;;;;;5028935;28;20183;-69
2021/12/27 02:28:14;;;;;;;3.23;3.03;;;19.70;50.20;;;;;;5028912;28;20493;-69
2021/12/27 02:30:41;;;;;;;3.20;2.80;;;19.70;50.30;;;;;;5028837;28;20419;-69
2021/12/27 02:33:09;;;;;;;2.07;1.97;;;19.70;50.30;;;;;;5028462;28;20573;-69
2021/12/27 02:35:48;;;;;;;2.90;2.70;;;20.00;50.50;;;;;;5028771;28;20477;-69
2021/12/27 02:38:20;;;;;;;3.30;2.73;;;19.90;50.40;;;;;;5028873;28;20914;-69
2021/12/27 02:40:46;;;;;;;2.33;2.23;;;19.70;50.30;;;;;;5028612;28;20407;-69
2021/12/27 02:43:15;;;;;;;3.40;3.10;;;19.70;50.30;;;;;;5028362;28;20556;-69
2021/12/27 02:45:43;;;;;;;2.90;2.60;;;19.80;50.40;;;;;;5028484;28;20514;-69
2021/12/27 02:48:13;;;;;;;2.60;2.40;;;19.70;50.30;;;;;;5028538;28;20419;-69
2021/12/27 02:50:40;;;;;;;3.10;2.80;;;19.70;50.30;;;;;;5028603;28;20414;-69
2021/12/27 02:53:08;;;;;;;2.90;2.40;;;19.70;50.30;;;;;;5027982;28;20467;-69
2021/12/27 02:55:33;;;;;;;3.03;2.87;;;19.60;50.30;;;;;;5028090;28;20890;-69
2021/12/27 02:57:59;;;;;;;2.73;2.63;;;19.70;50.30;;;;;;5028258;28;20403;-69
2021/12/27 03:00:28;;;;;;;3.13;2.93;;;19.70;50.30;;;;;;5028494;28;20184;-69
2021/12/27 03:02:55;;;;;;;2.97;2.67;;;19.70;50.30;;;;;;5028257;28;20549;-69
2021/12/27 03:05:23;;;;;;;2.87;2.70;;;19.70;50.30;;;;;;5028398;28;20551;-69
2021/12/27 03:07:51;;;;;;;2.67;2.47;;;19.70;50.30;;;;;;5028282;28;20498;-69
2021/12/27 03:10:25;;;;;;;2.23;2.13;;;19.70;50.40;;;;;;5028369;28;20888;-69
2021/12/27 03:12:53;;;;;;;3.17;2.60;;;19.70;50.30;;;;;;5028005;28;20463;-69
2021/12/27 03:15:20;;;;;;;3.07;2.93;;;19.60;50.30;;;;;;5028309;28;20453;-69
2021/12/27 03:17:47;;;;;;;2.97;2.80;;;19.70;50.40;;;;;;5028031;28;20415;-69
2021/12/27 03:20:15;;;;;;;3.00;2.80;;;19.70;50.40;;;;;;5028208;28;20418;-69
2021/12/27 03:22:42;;;;;;;3.20;3.00;;;19.80;50.50;;;;;;5027890;28;20598;-69
2021/12/27 03:25:15;;;;;;;2.43;2.33;;;19.50;50.20;;;;;;5028099;28;20442;-69
2021/12/27 03:27:41;;;;;;;2.57;2.47;;;19.70;50.40;;;;;;5028134;28;20864;-69
2021/12/27 03:30:10;;;;;;;2.70;2.60;;;20.00;50.60;;;;;;5028088;28;20447;-69
2021/12/27 03:32:36;;;;;;;3.60;3.37;;;19.70;50.40;;;;;;5027691;28;20744;-67
2021/12/27 03:35:10;;;;;;;2.80;2.60;;;19.70;50.40;;;;;;5029702;28;21078;-67
2021/12/27 03:37:38;;;;;;;3.83;2.80;;;19.70;50.40;;;;;;5031981;28;20435;-67
2021/12/27 03:40:06;;;;;;;2.70;2.60;;;19.60;50.40;;;;;;5031880;28;20415;-67
2021/12/27 03:42:32;;;;;;;3.20;3.00;;;19.60;50.40;;;;;;5031547;28;20435;-67
2021/12/27 03:44:58;;;;;;;2.50;2.40;;;19.60;50.40;;;;;;5031841;28;20927;-67
2021/12/27 03:47:23;;;;;;;2.77;2.57;;;19.30;50.20;;;;;;5031866;28;20272;-67
2021/12/27 03:49:49;;;;;;;3.20;3.00;;;19.60;50.40;;;;;;5031684;28;20176;-67
2021/12/27 03:52:15;;;;;;;2.33;2.23;;;19.70;50.50;;;;;;5031202;28;20216;-67
2021/12/27 03:54:40;;;;;;;2.70;2.50;;;19.70;50.40;;;;;;5031556;28;20188;-67
2021/12/27 03:57:06;;;;;;;2.73;2.53;;;19.90;50.60;;;;;;5031213;28;20176;-67
2021/12/27 03:59:48;;;;;;;2.70;2.50;;;19.60;50.40;;;;;;5031573;28;20165;-67
2021/12/27 04:02:14;;;;;;;2.30;2.20;;;19.60;50.40;;;;;;5031172;28;20157;-67
2021/12/27 04:04:42;;;;;;;2.60;2.43;;;19.60;50.40;;;;;;5031281;28;20474;-67
2021/12/27 04:07:08;;;;;;;2.47;2.37;;;19.60;50.40;;;;;;5031278;28;20414;-70
2021/12/27 04:09:38;;;;;;;2.70;2.50;;;19.90;50.60;;;;;;5031248;28;20416;-67
2021/12/27 04:12:04;;;;;;;2.90;2.70;;;19.90;51.20;;;;;;5030756;28;20796;-68
2021/12/27 04:14:30;;;;;;;2.67;2.50;;;19.60;50.40;;;;;;5031109;28;20434;-68
2021/12/27 04:16:56;;;;;;;3.20;3.00;;;19.70;50.60;;;;;;5031198;28;20723;-68
2021/12/27 04:19:21;;;;;;;2.40;2.20;;;19.60;50.40;;;;;;5026149;28;20234;-67
2021/12/27 04:21:47;;;;;;;2.40;2.30;;;19.60;50.50;;;;;;5025778;28;20628;-68
2021/12/27 04:24:13;;;;;;;3.60;2.83;;;19.60;50.50;;;;;;5030670;28;20254;-68
2021/12/27 04:26:39;;;;;;;3.37;3.07;;;19.10;50.20;;;;;;5025935;28;20789;-68
2021/12/27 04:29:05;;;;;;;2.30;2.20;;;19.50;50.40;;;;;;5030694;28;20579;-68
2021/12/27 04:31:31;;;;;;;3.10;2.90;;;19.70;50.60;;;;;;5030880;28;20268;-68
2021/12/27 04:33:57;;;;;;;2.83;2.57;;;21.10;51.30;;;;;;5030387;28;20534;-68
2021/12/27 04:36:23;;;;;;;3.17;2.97;;;20.60;51.00;;;;;;5030797;28;20601;-68
2021/12/27 04:38:48;;;;;;;2.57;2.37;;;19.60;50.50;;;;;;5030667;28;20707;-68
2021/12/27 04:41:17;;;;;;;2.30;2.20;;;19.80;50.60;;;;;;5030567;28;20183;-68
2021/12/27 04:43:43;;;;;;;3.60;2.70;;;19.60;50.50;;;;;;5030096;28;20221;-67
2021/12/27 04:46:08;;;;;;;2.60;2.50;;;19.80;50.60;;;;;;5030521;28;20884;-68
2021/12/27 04:48:34;;;;;;;2.47;2.20;;;19.70;50.60;;;;;;5030788;28;20512;-68
2021/12/27 04:50:59;;;;;;;2.17;2.07;;;19.60;50.50;;;;;;5030532;28;20195;-68
2021/12/27 04:53:26;;;;;;;2.60;2.50;;;19.60;58.10;;;;;;5029877;28;20218;-68
2021/12/27 04:55:52;;;;;;;2.23;2.13;;;19.60;50.60;;;;;;5030424;28;20173;-68
2021/12/27 04:58:21;;;;;;;2.20;2.10;;;19.60;50.50;;;;;;5030456;28;20484;-68
2021/12/27 05:00:47;;;;;;;2.30;2.20;;;19.60;50.50;;;;;;5030460;28;20427;-68
2021/12/27 05:03:13;;;;;;;3.83;2.80;;;19.50;50.50;;;;;;5030128;28;20509;-68
2021/12/27 05:05:42;;;;;;;2.60;2.40;;;19.50;50.50;;;;;;5030212;28;20508;-68
2021/12/27 05:08:07;;;;;;;2.30;2.20;;;18.70;50.10;;;;;;5030132;28;20169;-68
2021/12/27 05:10:33;;;;;;;2.70;2.50;;;19.50;50.50;;;;;;5030081;28;20902;-68
2021/12/27 05:12:59;;;;;;;2.30;2.10;;;19.90;50.70;;;;;;5048589;28;20278;-68
2021/12/27 05:15:25;;;;;;;2.57;2.47;;;19.60;50.60;;;;;;5049991;28;20192;-68
2021/12/27 05:17:50;;;;;;;2.67;2.50;;;19.50;50.50;;;;;;5050128;28;20172;-68
2021/12/27 05:20:16;;;;;;;3.17;2.87;;;19.80;50.70;;;;;;5049969;28;20594;-68
2021/12/27 05:22:42;;;;;;;2.70;2.53;;;19.80;50.70;;;;;;5049581;28;20362;-68
2021/12/27 05:25:11;;;;;;;3.00;2.80;;;19.60;50.60;;;;;;5049799;28;20199;-68
2021/12/27 05:27:38;;;;;;;2.77;2.53;;;19.50;50.50;;;;;;5049694;28;20175;-68
2021/12/27 05:30:04;;;;;;;2.30;2.20;;;19.50;50.60;;;;;;5049693;28;20796;-68
2021/12/27 05:32:30;;;;;;;2.10;2.00;;;19.50;50.60;;;;;;5049277;28;20973;-68
2021/12/27 05:34:55;;;;;;;2.60;2.50;;;19.50;50.60;;;;;;5049593;28;20571;-68
2021/12/27 05:37:21;;;;;;;2.20;2.10;;;19.50;50.60;;;;;;5049604;28;20168;-68
2021/12/27 05:39:48;;;;;;;2.13;2.03;;;19.90;50.80;;;;;;5049731;28;20168;-68
2021/12/27 05:42:14;;;;;;;2.93;2.73;;;19.50;50.50;;;;;;5049095;28;20176;-67
2021/12/27 05:44:39;;;;;;;2.47;2.37;;;19.70;50.70;;;;;;5049482;28;20438;-68
2021/12/27 05:47:05;;;;;;;2.70;2.60;;;19.50;50.60;;;;;;5049450;28;20232;-68
2021/12/27 05:49:31;;;;;;;2.83;2.63;;;19.50;50.50;;;;;;5049434;28;20227;-68
2021/12/27 05:51:56;;;;;;;2.13;2.03;;;19.50;50.60;;;;;;5049035;28;20188;-68
2021/12/27 05:54:22;;;;;;;2.40;2.20;;;19.50;50.60;;;;;;5046368;28;20230;-68
2021/12/27 05:56:48;;;;;;;2.57;2.47;;;19.50;50.60;;;;;;5029229;28;20164;-68
2021/12/27 05:59:17;;;;;;;2.23;2.13;;;19.50;50.60;;;;;;5029186;28;20836;-68
2021/12/27 06:01:44;;;;;;;2.20;2.10;;;19.50;50.60;;;;;;5029573;28;20421;-68
2021/12/27 06:04:10;;;;;;;2.37;2.27;;;19.50;50.60;;;;;;5029301;28;20458;-68
2021/12/27 06:06:36;;;;;;;2.90;2.60;;;19.70;50.70;;;;;;5029464;28;20911;-68
2021/12/27 06:09:03;;;;;;;2.10;2.00;;;19.50;50.60;;;;;;5029056;28;20488;-68
2021/12/27 06:11:29;;;;;;;2.53;2.37;;;19.50;50.60;;;;;;5035586;28;20432;-68
2021/12/27 06:13:55;;;;;;;2.23;2.13;;;19.50;50.60;;;;;;5048659;28;20922;-68
2021/12/27 06:16:20;;;;;;;2.20;2.10;;;19.70;50.70;;;;;;5049119;28;20168;-68
2021/12/27 06:18:47;;;;;;;2.60;2.40;;;19.50;50.60;;;;;;5048927;28;20164;-68
2021/12/27 06:21:12;;;;;;;2.40;2.23;;;19.70;50.80;;;;;;5048929;28;20187;-68
2021/12/27 06:23:38;;;;;;;2.60;2.50;;;19.50;50.60;;;;;;5048467;28;20552;-68
2021/12/27 06:26:04;;;;;;;4.77;2.80;;;19.70;50.70;;;;;;5048866;28;20388;-68
2021/12/27 06:28:31;;;;;;;2.33;2.23;;;19.50;50.60;;;;;;5048750;28;20180;-68
2021/12/27 06:30:58;;;;;;;2.70;2.60;;;19.50;50.60;;;;;;5048705;28;20488;-68
2021/12/27 06:33:24;;;;;;;2.70;2.50;;;19.70;61.80;;;;;;5048111;28;20446;-68
2021/12/27 06:35:50;;;;;;;2.60;2.50;;;19.60;50.70;;;;;;5036651;28;20755;-68
2021/12/27 06:38:15;;;;;;;2.67;2.47;;;19.50;50.60;;;;;;5028170;28;20403;-68
2021/12/27 06:40:41;;;;;;;2.43;2.23;;;19.50;50.60;;;;;;5023563;28;20264;-68
2021/12/27 06:43:07;;;;;;;2.57;2.47;;;19.70;50.70;;;;;;5028284;28;20176;-69
2021/12/27 06:45:32;;;;;;;2.30;2.20;;;20.50;51.20;;;;;;5028508;28;20663;-69
2021/12/27 06:47:58;;;;;;;3.33;3.13;;;19.70;50.70;;;;;;5028673;28;20226;-69
2021/12/27 06:50:23;;;;;;;2.30;2.20;;;19.50;50.60;;;;;;5028634;28;20177;-69
2021/12/27 06:52:49;;;;;;;2.40;2.30;;;19.50;50.60;;;;;;5027930;28;20226;-69
2021/12/27 06:55:15;;;;;;;2.37;2.27;;;19.50;50.60;;;;;;5028509;28;20215;-69
2021/12/27 06:57:41;;;;;;;2.30;2.20;;;19.70;50.70;;;;;;5028573;28;20672;-69
2021/12/27 07:00:09;;;;;;;2.53;2.43;;;19.80;50.90;;;;;;5028660;28;20179;-69
2021/12/27 07:02:35;;;;;;;2.53;2.43;;;19.50;50.60;;;;;;5028353;28;20263;-69
2021/12/27 07:05:00;;;;;;;2.57;2.47;;;19.50;50.60;;;;;;5028631;28;20501;-69
2021/12/27 07:07:26;;;;;;;2.33;2.23;;;19.70;50.70;;;;;;5028538;28;20296;-69
2021/12/27 07:09:52;;;;;;;2.23;2.13;;;19.80;50.80;;;;;;5031746;28;20172;-69
2021/12/27 07:12:17;;;;;;;2.07;1.97;;;19.00;50.30;;;;;;5045483;28;20207;-69
2021/12/27 07:14:43;;;;;;;2.10;1.90;;;19.50;50.60;;;;;;5052591;28;20216;-69
2021/12/27 07:17:09;;;;;;;2.50;2.30;;;19.60;50.70;;;;;;5052516;28;20621;-69
2021/12/27 07:19:35;;;;;;;2.40;2.30;;;20.00;51.00;;;;;;5052374;28;20167;-69
2021/12/27 07:22:00;;;;;;;2.50;2.30;;;19.30;50.50;;;;;;5052361;28;20253;-68
2021/12/27 07:24:26;;;;;;;1.90;1.80;;;19.50;50.60;;;;;;5052167;28;20746;-69
2021/12/27 07:26:54;;;;;;;2.13;2.03;;;19.60;50.70;;;;;;5052171;28;20652;-69
2021/12/27 07:29:20;;;;;;;2.00;2.00;;;19.50;50.60;;;;;;5046275;28;20286;-69
2021/12/27 07:31:46;;;;;;;2.20;2.10;;;19.50;50.60;;;;;;5029676;28;20502;-69
2021/12/27 07:34:13;;;;;;;1.80;1.73;;;20.00;50.90;;;;;;5026369;28;20904;-69
2021/12/27 07:36:39;;;;;;;2.13;1.93;;;19.50;50.60;;;;;;5031704;28;20203;-69
2021/12/27 07:39:06;;;;;;;2.20;2.10;;;19.50;50.70;;;;;;5031871;28;20442;-68
2021/12/27 07:41:31;;;;;;;2.33;2.23;;;19.60;50.70;;;;;;5031893;28;20749;-69
2021/12/27 07:43:57;;;;;;;2.30;2.10;;;19.50;50.60;;;;;;5031513;28;20502;-69
2021/12/27 07:46:24;;;;;;;1.80;1.70;;;19.50;50.60;;;;;;5031792;28;20665;-69
2021/12/27 07:48:50;;;;;;;2.37;2.23;;;19.60;51.30;;;;;;5031758;28;20280;-69
2021/12/27 07:51:16;;;;;;;1.80;1.70;;;19.50;50.60;;;;;;5031593;28;20411;-69
2021/12/27 07:53:41;;;;;;;2.00;1.90;;;19.70;50.70;;;;;;5031249;28;20540;-69
2021/12/27 07:56:08;;;;;;;2.00;1.90;;;19.50;50.70;;;;;;5031582;28;20177;-69
2021/12/27 07:58:35;;;;;;;3.00;2.03;;;19.90;50.80;;;;;;5030119;28;20239;-69
2021/12/27 08:01:01;;;;;;;1.77;1.70;;;19.50;50.70;;;;;;5031583;28;20475;-69
2021/12/27 08:03:26;;;;;;;2.00;1.90;;;18.90;58.10;;;;;;5031044;28;20725;-69
2021/12/27 08:05:52;;;;;;;2.10;2.00;;;19.50;50.70;;;;;;5031292;28;20477;-69
2021/12/27 08:08:18;;;;;;;2.00;1.90;;;19.50;50.70;;;;;;5031472;28;20212;-69
2021/12/27 08:10:44;;;;;;;2.20;2.10;;;19.50;50.70;;;;;;5031547;28;20246;-69
2021/12/27 08:13:10;;;;;;;2.50;2.40;;;19.50;50.70;;;;;;5050752;28;20545;-69
2021/12/27 08:15:35;;;;;;;2.73;2.53;;;19.50;50.70;;;;;;5051166;28;20452;-69
2021/12/27 08:18:01;;;;;;;2.60;2.40;;;19.60;50.70;;;;;;5051160;28;20170;-69
2021/12/27 08:20:26;;;;;;;2.33;2.23;;;19.50;50.70;;;;;;5050318;28;20251;-69
2021/12/27 08:22:52;;;;;;;1.93;1.83;;;19.50;50.80;;;;;;5050716;28;20257;-69
2021/12/27 08:25:18;;;;;;;2.97;2.87;;;19.80;50.90;;;;;;5051072;28;20548;-69
2021/12/27 08:27:44;;;;;;;1.97;1.87;;;19.50;50.70;;;;;;5050906;28;20267;-69
2021/12/27 08:30:11;;;;;;;2.37;2.10;;;19.50;50.80;;;;;;5050869;28;20357;-69
2021/12/27 08:32:40;;;;;;;2.80;2.70;;;19.50;50.70;;;;;;5050490;28;20458;-69
2021/12/27 08:35:07;;;;;;;2.17;2.07;;;19.50;50.80;;;;;;5050578;28;20520;-69
2021/12/27 08:37:33;;;;;;;2.03;1.93;;;19.50;50.70;;;;;;5050576;28;20431;-69
2021/12/27 08:40:00;;;;;;;2.67;2.57;;;19.50;50.80;;;;;;5050815;28;20460;-69
2021/12/27 08:42:26;;;;;;;1.93;1.83;;;19.60;50.80;;;;;;5050374;28;20852;-68
2021/12/27 08:44:52;;;;;;;1.93;1.83;;;19.40;50.70;;;;;;5050573;28;20985;-69
2021/12/27 08:47:19;;;;;;;2.13;2.03;;;19.60;50.80;;;;;;5050578;28;20406;-69
2021/12/27 08:49:45;;;;;;;1.77;1.67;;;19.50;50.80;;;;;;5050407;28;20429;-69
2021/12/27 08:52:12;;;;;;;2.47;2.27;;;19.50;50.70;;;;;;5050222;28;20551;-69
2021/12/27 08:54:37;;;;;;;1.87;1.77;;;19.60;50.80;;;;;;5045618;28;20436;-69
2021/12/27 08:57:05;;;;;;;2.60;2.50;;;19.50;50.80;;;;;;5030302;28;20562;-69
2021/12/27 08:59:32;;;;;;;2.43;2.23;;;20.30;51.20;;;;;;5030351;28;20260;-69
2021/12/27 09:01:57;;;;;;;2.50;2.40;;;19.40;50.70;;;;;;5030194;28;20732;-69
2021/12/27 09:04:23;;;;;;;2.37;2.27;;;19.70;50.90;;;;;;5030145;28;20443;-68
2021/12/27 09:06:49;;;;;;;1.97;1.87;;;19.50;50.80;;;;;;5030306;28;20415;-69
2021/12/27 09:09:15;;;;;;;2.30;2.20;;;19.80;51.00;;;;;;5030238;28;20195;-69
2021/12/27 09:11:42;;;;;;;2.30;2.20;;;19.30;50.70;;;;;;5038392;28;20895;-69
2021/12/27 09:14:08;;;;;;;2.30;2.20;;;19.80;50.90;;;;;;5049797;28;20476;-69
2021/12/27 09:16:33;;;;;;;1.90;1.90;;;19.50;50.90;;;;;;5050165;28;20493;-69
2021/12/27 09:18:59;;;;;;;2.23;2.13;;;19.70;51.00;;;;;;5049904;28;20186;-68
2021/12/27 09:21:25;;;;;;;2.03;1.93;;;19.80;51.00;;;;;;5049817;28;20274;-69
2021/12/27 09:23:51;;;;;;;1.83;1.73;;;19.50;50.80;;;;;;5049597;28;20203;-69
2021/12/27 09:26:16;;;;;;;2.00;1.90;;;19.50;51.40;;;;;;5050084;28;20187;-69
2021/12/27 09:28:42;;;;;;;2.10;1.90;;;18.70;50.40;;;;;;5049878;28;20414;-69
2021/12/27 09:31:07;;;;;;;2.20;2.10;;;19.60;50.90;;;;;;5049688;28;20197;-69
2021/12/27 09:33:33;;;;;;;2.13;2.03;;;19.50;63.10;;;;;;5048336;28;20206;-69
2021/12/27 09:35:59;;;;;;;1.97;1.80;;;19.40;50.80;;;;;;5049691;28;20599;-69
2021/12/27 09:38:24;;;;;;;3.93;2.53;;;19.70;50.90;;;;;;5049783;28;20197;-69
2021/12/27 09:40:50;;;;;;;1.87;1.77;;;19.50;50.80;;;;;;5049784;28;20265;-69
2021/12/27 09:43:16;;;;;;;2.27;2.17;;;19.50;50.80;;;;;;5049332;28;20176;-69
2021/12/27 09:45:42;;;;;;;1.80;1.70;;;19.50;50.80;;;;;;5049429;28;20256;-69
2021/12/27 09:48:07;;;;;;;2.30;2.10;;;19.50;50.80;;;;;;5049509;28;20558;-69
2021/12/27 09:50:44;;;;;;;2.20;2.10;;;19.50;50.90;;;;;;5049446;28;20450;-69
2021/12/27 09:53:10;;;;;;;1.50;1.50;;;19.50;50.80;;;;;;5048979;28;20234;-69
2021/12/27 09:55:36;;;;;;;2.20;2.10;;;20.40;51.30;;;;;;5036340;28;20878;-69
2021/12/27 09:58:02;;;;;;;2.40;2.30;;;19.50;50.90;;;;;;5029321;28;20176;-69
2021/12/27 10:00:28;;;;;;;2.10;2.00;;;19.50;50.90;;;;;;5029233;28;20755;-69
2021/12/27 10:02:56;;;;;;;1.80;1.80;;;19.50;50.90;;;;;;5029167;28;20234;-69
2021/12/27 10:05:23;;;;;;;2.23;2.13;;;19.50;50.90;;;;;;5029306;28;20850;-69
2021/12/27 10:07:49;;;;;;;1.93;1.83;;;19.50;50.90;;;;;;5029278;28;20540;-69
2021/12/27 10:10:15;;;;;;;1.97;1.90;;;19.50;51.00;;;;;;5029369;28;20879;-69
2021/12/27 10:12:41;;;;;;;2.60;2.07;;;19.80;51.10;;;;;;5045052;28;20454;-69
2021/12/27 10:15:09;;;;;;;1.77;1.70;;;19.60;51.00;;;;;;5048821;28;20591;-69
2021/12/27 10:17:37;;;;;;;1.77;1.67;;;19.50;51.00;;;;;;5049031;28;20180;-69
2021/12/27 10:20:20;;;;;;;2.23;2.13;;;19.60;51.00;;;;;;5048924;28;20407;-69
2021/12/27 10:22:50;;;;;;;1.90;1.90;;;19.50;50.90;;;;;;5048478;28;20415;-69
2021/12/27 10:25:24;;;;;;;2.20;2.10;;;19.80;51.10;;;;;;5048677;28;20445;-69
2021/12/27 10:27:53;;;;;;;1.97;1.97;;;19.50;50.90;;;;;;5048836;28;20417;-69
2021/12/27 10:30:31;;;;;;;2.60;2.50;;;19.60;51.00;;;;;;5048754;28;20406;-69
2021/12/27 10:33:08;;;;;;;2.47;2.37;;;19.60;50.90;;;;;;5048170;28;20494;-70
2021/12/27 10:35:40;;;;;;;1.80;1.70;;;19.60;51.50;;;;;;5048637;28;20453;-69
2021/12/27 10:38:15;;;;;;;2.17;2.07;;;19.70;51.00;;;;;;5048699;28;20504;-69
2021/12/27 10:40:52;;;;;;;1.80;1.70;;;19.90;51.00;;;;;;5048595;28;20445;-68
2021/12/27 10:43:31;;;;;;;1.97;1.87;;;19.70;50.40;;;;;;5048227;28;20426;-69
2021/12/27 10:46:00;;;;;;;2.03;1.93;;;19.60;50.80;;;;;;5048556;28;20516;-69
2021/12/27 10:48:35;;;;;;;2.00;1.90;;;19.70;50.80;;;;;;5048431;28;20412;-69
2021/12/27 10:51:02;;;;;;;1.80;1.70;;;19.70;50.80;;;;;;5048667;28;20390;-69
2021/12/27 10:53:42;;;;;;;2.50;2.23;;;19.50;61.70;;;;;;5048127;28;20458;-69
2021/12/27 10:56:09;;;;;;;2.13;2.03;;;19.70;50.80;;;;;;5031318;28;20522;-69
2021/12/27 10:58:38;;;;;;;1.67;1.63;;;19.70;50.70;;;;;;5028248;28;20778;-69
2021/12/27 11:01:11;;;;;;;2.10;2.00;;;19.70;50.70;;;;;;5028496;28;20399;-69
2021/12/27 11:03:43;;;;;;;1.97;1.90;;;19.70;62.30;;;;;;5028205;28;20407;-69
2021/12/27 11:06:14;;;;;;;2.10;2.00;;;19.70;50.60;;;;;;5028470;28;20419;-69
2021/12/27 11:08:45;;;;;;;2.27;2.17;;;19.70;50.60;;;;;;5028507;28;20464;-69
2021/12/27 11:11:12;;;;;;;2.03;1.93;;;19.70;50.60;;;;;;5032043;28;20426;-69
2021/12/27 11:13:37;;;;;;;2.00;1.90;;;19.70;62.30;;;;;;5047917;28;20553;-69
2021/12/27 11:16:04;;;;;;;2.00;1.90;;;19.70;50.60;;;;;;5048310;28;20410;-69
2021/12/27 11:18:29;;;;;;;2.00;1.90;;;19.70;50.70;;;;;;5047989;28;20176;-69
2021/12/27 11:21:10;;;;;;;1.90;1.80;;;19.90;50.80;;;;;;5048088;28;20451;-69
2021/12/27 11:23:36;;;;;;;1.90;1.80;;;19.50;62.50;;;;;;5047801;28;20193;-69
2021/12/27 11:26:14;;;;;;;1.93;1.70;;;19.70;50.80;;;;;;5048062;28;20566;-69
2021/12/27 11:28:42;;;;;;;2.40;2.30;;;19.70;50.70;;;;;;5048110;28;20179;-69
2021/12/27 11:31:27;;;;;;;2.33;2.23;;;19.80;50.90;;;;;;5047991;28;20588;-69
2021/12/27 11:34:13;;;;;;;1.63;1.63;;;20.10;51.00;;;;;;5047523;28;20461;-69
2021/12/27 11:36:46;;;;;;;1.90;1.80;;;19.70;50.90;;;;;;5047926;28;20402;-70
2021/12/27 11:39:30;;;;;;;2.00;1.90;;;19.70;50.80;;;;;;5047879;28;20421;-69
2021/12/27 11:42:01;;;;;;;1.73;1.63;;;19.70;50.90;;;;;;5047761;28;20465;-69
2021/12/27 11:44:44;;;;;;;2.40;2.30;;;19.70;50.90;;;;;;5047568;28;20433;-69
2021/12/27 11:47:11;;;;;;;1.77;1.67;;;19.60;50.90;;;;;;5047973;28;20410;-69
2021/12/27 11:49:46;;;;;;;2.10;2.00;;;19.60;50.90;;;;;;5047800;28;20816;-69
2021/12/27 11:52:34;;;;;;;2.10;2.00;;;19.60;50.90;;;;;;5047719;28;20894;-69
2021/12/27 11:55:11;;;;;;;1.47;1.37;;;19.60;50.90;;;;;;5039994;28;20815;-69
2021/12/27 11:57:42;;;;;;;1.60;1.60;;;19.70;51.00;;;;;;5031586;28;20442;-69
2021/12/27 12:00:20;;;;;;;2.20;2.03;;;19.90;51.20;;;;;;5031502;28;20407;-69
2021/12/27 12:02:48;;;;;;;2.03;1.93;;;19.60;51.00;;;;;;5031144;28;20466;-69
2021/12/27 12:05:36;;;;;;;1.40;1.40;;;19.60;51.10;;;;;;5031186;28;20446;-69
2021/12/27 12:08:02;;;;;;;1.50;1.40;;;19.60;51.00;;;;;;5031271;28;20443;-69
2021/12/27 12:10:30;;;;;;;2.10;2.00;;;19.60;51.10;;;;;;5031259;28;20419;-69
2021/12/27 12:13:19;;;;;;;1.53;1.50;;;19.60;51.10;;;;;;5030940;28;20803;-69
2021/12/27 12:16:14;;;;;;;1.83;1.73;;;19.70;51.20;;;;;;5031028;28;20402;-69
2021/12/27 12:18:52;;;;;;;2.93;1.97;;;19.60;51.20;;;;;;5021285;28;20451;-69
2021/12/27 12:21:33;;;;;;;1.90;1.80;;;19.70;51.80;;;;;;5031254;28;20419;-69
2021/12/27 12:24:01;;;;;;;2.03;2.03;;;19.70;51.10;;;;;;5030696;28;20552;-69
2021/12/27 12:26:31;;;;;;;1.90;1.80;;;19.70;51.10;;;;;;5031106;28;20419;-69
2021/12/27 12:29:03;;;;;;;1.57;1.57;;;19.70;51.10;;;;;;5030872;28;20421;-69
2021/12/27 12:31:31;;;;;;;2.10;2.00;;;19.70;51.00;;;;;;5031146;28;20419;-68
2021/12/27 12:34:08;;;;;;;2.00;1.90;;;19.70;51.10;;;;;;5030800;28;20493;-68
2021/12/27 12:36:48;;;;;;;1.80;1.70;;;20.50;51.50;;;;;;5025938;28;20412;-69
2021/12/27 12:39:14;;;;;;;1.47;1.37;;;19.60;51.10;;;;;;5022105;28;20392;-69
2021/12/27 12:41:40;;;;;;;1.87;1.80;;;19.80;51.10;;;;;;5027647;28;20902;-69
2021/12/27 12:44:07;;;;;;;1.47;1.47;;;19.60;51.10;;;;;;5030544;28;20754;-69
2021/12/27 12:46:38;;;;;;;1.70;1.70;;;19.60;51.10;;;;;;5030893;28;20868;-69
2021/12/27 12:49:20;;;;;;;1.90;1.80;;;19.70;51.20;;;;;;5030634;28;20403;-69
2021/12/27 12:51:51;;;;;;;1.50;1.50;;;19.60;51.10;;;;;;5030625;28;20451;-69